KZN Marathon Champions K1 Results

KZN K1 MARATHON CHAMPIONSHIPS
Pos No.1 Name1 Surname1 Club1 Union1 TotalTime Sex Age
1 70570 JODIE FUHRI EPW KZ [ 0:42:15.73 ] F (U10)1
2 T00471 TSUNGI MUTONBA EPW KZ [ 0:45:07.82 ] F (U10)2
3 T00042 MELISSA GERMIQUET UMZ KZ [ 0:49:19.59 ] F (U10)3
1 T00469 NOSIPHO MLHAMBU UMZ KZ [ 0:53:54.92 ] F (U12)1
2 70575 NONHLANHLA MKHIZE THO KZ [ 1:01:43.89 ] F (U12)2
3 T00470 GENEVIEVE GERMIQUET UMZ KZ [ 1:10:20.55 ] F (U12)3
1 T00482 THOBANI MKHIZE THO KZ [ 0:32:44.84 ] M (U10)1
2 T00472 COHEN MURRAY TEMP TM [ 0:39:47.66 ] M (U10)2
3 T00368 SIMILO MTHETHWA TEMP TM [ 0:40:11.63 ] M (U10)3
4 T00487 PHILLIP SHUTTE EPW KZ [ 0:40:33.27 ] M (U10)4
5 T00466 JARRYD SCRUBY TEMP TM [ 0:40:39.65 ] M (U10)5
6 T00475 SPHESIHLE MTHEMBU MKH KZ [ 0:43:26.13 ] M (U10)6
1 T00296 LANGELIHLE SHOZI [ 0:51:01.90 ] M (U12)1
2 70840 LINDOKUHLE MAPHUMULO UMZ KZ [ 0:51:02.99 ] M (U12)2
3 2020 JARRYD WALKER KIN KZ [ 0:54:00.99 ] M (U12)3
4 T00486 AYANDA MALEVU THO KZ [ 0:58:21.58 ] M (U12)4
5 T00474 MENZI MTHEMBU MKH KZ [ 0:58:25.44 ] M (U12)5
6 T00371 APHILE HLENGWA TEMP TM [ 1:04:07.67 ] M (U12)6
1 7760 DEBBIE GERMIQUET UMZ KZ [ 1:47:24.45 ] F (SV)1
2 8663 GAIL MAIN STM KZ [ 1:52:40.01 ] F (SV)2
3 200 THEA VAN DER WESTHUIZEN UKNH KZ [ 2:02:01.30 ] F (SV)3
1 9722 MARION YOUNG NAT KZ [ 1:41:48.88 ] F (V)1
2 8780 ANGELA SCRUBY UMZ KZ [ 1:47:55.29 ] F (V)2
3 7550 WILMA DEYZEL KIN KZ [ 1:50:20.39 ] F (V)3
4 7461 MAYA OPPERMAN STE KZ [ 1:52:34.54 ] F (V)4
1 1691 CARROL EVANS KIN KZ [ 1:44:50.57 ] F (SGM)1
1 95215 SHAUN BURGEN KIN KZ [ 1:49:01.97 ] M (SV)1
1 8405 WARREN VALENTINE KIN KZ [ 1:47:03.02 ] M (V)1
2 8251 STEVE MAIN KEA KZ [ 1:53:40.19 ] M (V)2
3 9511 MARC GERMIQUET DUC KZ [ 1:57:32.31 ] M (V)3
4 9561 SIMON GABANGANI MTHETHWA MKH KZ [ 2:08:02.47 ] M (V)4
1 6256 WAYNE WILSON KIN KZ [ 1:43:20.34 ] M (SM)1
1 76380 LEE MC GREGOR KIN KZ [ 1:43:28.23 ] M (M)1
2 8200 PAUL SCRUBY DUC KZ [ 1:49:20.03 ] M (M)2
3 8455 ALISTAIR BLACK CRU KZ [ 1:56:35.67 ] M (M)3
4 93257 CHRIS WOODGATE NAT KZ [ 2:08:00.37 ] M (M)4
1 8771 LINTON HOPE KIN KZ [ 1:32:00.36 ] M (SGM)1
2 6630 BRUCE WENKE KIN KZ [ 1:32:07.98 ] M (SGM)2
3 9842 ROBERT MC INERNEY UMZ KZ [ 1:49:42.03 ] M (SGM)3
1 7453 ALLAN HOLD STE KZ [ 1:32:01.25 ] M (GM)1
2 7215 TIM CORNISH NAT KZ [ 1:39:41.71 ] M (GM)2
3 1679 JOHN EVANS KIN KZ [ 1:40:47.67 ] M (GM)3
4 7689 NIGEL BRIGGS NAT KZ [ 1:42:44.84 ] M (GM)4
1 8819 LEN JENKINS SNR NAT KZ [ 1:39:40.71 ] M (GGM)1
2 7880 CHRIS VAN DEN BERG INT IN [ 1:42:48.21 ] M (GGM)2
3 6884 RICHARD VENNIKER DUC KZ [ 1:42:48.73 ] M (GGM)3
4 6139 RAY BOWEN NAT KZ [ 1:54:01.51 ] M (GGM)4
1 8741 AMY PECKETT EPW KZ [ 1:36:10.93 ] F (U14)1
2 70572 CAYLEIGH SHAW EPW KZ [ 1:40:37.32 ] F (U14)2
3 70571 HANNAH SHRIVES EPW KZ [ 1:41:41.93 ] F (U14)3
4 70546 LISA MEYER FEZ KZ [ 1:43:50.24 ] F (U14)4
5 70844 MBALI SHOZI UMZ KZ [ 1:51:23.26 ] F (U14)5
1 9809 DONNA HUTTON EPW KZ [ 1:42:25.95 ] F (U16)1
2 748 CANA PEEK EPW KZ [ 1:43:23.02 ] F (U16)2
3 70618 CHRISTIE MACKENZIE EPW KZ [ 1:50:03.88 ] F (U16)3
4 70535 CHELINE JENKINS IMP KZ [ 2:01:30.76 ] F (U16)4
5 70108 SANDE BOVUNGANA UMZ KZ [ 2:03:01.03 ] F (U16)5
6 70564 HANNAH MAIN STM KZ [ 2:04:26.59 ] F (U16)6
1 626 KELLY BILJOEN CRU KZ [ 1:43:22.48 ] F (U18)1
2 70534 NOKUKHANYA SHANGE UMZ KZ [ 1:48:54.49 ] F (U18)2
1 70542 JOSHUA GIDDINGS IMP KZ [ 1:42:07.35 ] M (U14)1
2 T00283 DAVID EVANS [ 1:45:06.90 ] M (U14)2
3 60992 JOSEPH CLACEY EPW KZ [ 1:48:18.51 ] M (U14)3
4 60060 ANDILE MTOLO THO KZ [ 1:49:11.71 ] M (U14)4
5 60567 ROBERT McCONNELL KEA KZ [ 1:49:19.03 ] M (U14)5
6 T00299 NHLAKANIPHE ZONDI [ 1:53:18.57 ] M (U14)6
7 T00479 THOBELANI KWEYAMA THO KZ [ 1:53:24.70 ] M (U14)7
8 T00409 DYLAN HANSON TEMP TM [ 1:53:37.35 ] M (U14)8
9 70841 AMANDA MDLALOSE UMZ KZ [ 1:54:09.71 ] M (U14)9
10 70231 CALLAM DAVIS UMZ KZ [ 1:54:38.26 ] M (U14)10
11 571 MPENDULA MTHETHWA TEMP KZ [ 1:59:36.62 ] M (U14)11
1 60885 BAILEY DE FONDAUMIERE STE KZ [ 1:51:33.67 ] M (U16)1
2 7513 MPILO ZONDI LEM KZ [ 1:55:17.40 ] M (U16)2
3 60875 BRETT WILKEN STE KZ [ 1:56:10.76 ] M (U16)3
4 70186 RORY McNEILL KEA KZ [ 1:59:10.52 ] M (U16)4
5 T00323 DUMSANI PHETHA LEM KZ [ 2:00:06.93 ] M (U16)5
6 60981 LUKE CRITICOS MSL KZ [ 2:01:27.69 ] M (U16)6
7 889 TUMELO ELEPHANT NAT KZ [ 2:04:04.43 ] M (U16)7
8 60449 SIYABONGA HLOPHE NAT KZ [ 2:08:29.77 ] M (U16)8
9 89982 TIMOTHY MARSH KEA KZ [ 2:10:20.63 ] M (U16)9
10 T00330 LUNGELO ZONDI [ 2:11:06.86 ] M (U16)10
11 70569 STUART McCLEAVE KEA KZ [ 2:27:48.23 ] M (U16)11
1 654 BRYAN LEROUX NAT KZ [ 1:43:18.35 ] M (U18)1
2 50030 STUART BRISTOW PEN WP [ 1:44:03.33 ] M (U18)2
3 498 KEAGAN KOK KIN KZ [ 1:51:39.77 ] M (U18)3
4 60038 THABANI MSIYA THO KZ [ 1:54:27.45 ] M (U18)4
5 60806 SIYANDA GWAMANDA LEM KZ [ 1:54:29.72 ] M (U18)5
6 60816 JABULANI GWAMANDA LEM KZ [ 1:55:34.58 ] M (U18)6
7 70126 BONGANI NTINGA UMZ KZ [ 1:56:05.19 ] M (U18)7
8 6120 CHRISTOPHER KWEYAMA THO KZ [ 2:00:37.42 ] M (U18)8
9 70576 MSAWENKOSI MTOLO THO KZ [ 2:01:40.22 ] M (U18)9
10 121 ALAN HOUSTON MIC KZ [ 2:01:55.49 ] M (U18)10
11 885 INNOCENT MAGUBANE THO KZ [ 2:02:02.58 ] M (U18)11
12 7504 NKOSIKHONA MABASO LEM KZ [ 2:02:42.18 ] M (U18)12
13 60414 NICHOLAS SMUTS MAR KZ [ 2:03:17.01 ] M (U18)13
14 888 TSEPHANG ELEPHANT NAT KZ [ 2:10:51.67 ] M (U18)14
15 70125 LUKE PLOTTS KEA KZ [ 2:12:20.44 ] M (U18)15
16 6726 SIHLE GASA NAT KZ [ 2:12:22.13 ] M (U18)16
17 70111 MTHOKOZISI MKHIZE THO KZ [ 2:16:46.58 ] M (U18)17
18 T00483 DONSUMHLABA XULU THO KZ [ 2:18:32.09 ] M (U18)18
19 89983 EVAN KNIGHT KEA KZ [ 2:20:40.95 ] M (U18)19
1 8859 JENNA WARD KIN KZ [ 1:52:20.41 ] F (SNR)1
2 8751 ABBY ADIE NAT KZ [ 1:52:23.44 ] F (SNR)2
3 9306 LAURA O’DONOGHUE CAN KZ [ 1:55:36.37 ] F (SNR)3
4 9850 BRITTANY PETERSEN VAR KZ [ 2:02:58.30 ] F (SNR)4
5 9702 LAUREN FELGATE UKNH KZ [ 2:04:49.98 ] F (SNR)5
6 40081 NATASHA BULBRING RHO EC [ 2:18:07.82 ] F (SNR)6
1 8859 JENNA WARD KIN KZ [ 1:52:20.41 ] F (U23)1
2 9850 BRITTANY PETERSEN VAR KZ [ 2:02:58.30 ] F (U23)2
3 9702 LAUREN FELGATE UKNH KZ [ 2:04:49.98 ] F (U23)3
1 6381 HANK MCGREGOR KIN KZ [ 1:54:41.74 ] M (SNR)1
2 9061 ANDY BIRKETT NAT KZ [ 1:54:42.85 ] M (SNR)2
3 1044 CLINTON COOK VAR KZ [ 2:02:33.26 ] M (SNR)3
4 879 MHLONISHWA HLONGWANE THO KZ [ 2:02:34.93 ] M (SNR)4
5 823 BANESTI NKHOESA UMZ KZ [ 2:02:40.51 ] M (SNR)5
6 2001 THULANI MBANJWA LEM KZ [ 2:02:42.04 ] M (SNR)6
7 7774 LUCAS MTHALANE LEM KZ [ 2:06:51.24 ] M (SNR)7
8 7505 KWANDA MHLOPHE VAR KZ [ 2:07:04.35 ] M (SNR)8
9 346 SBONISO SHOZI THO KZ [ 2:07:06.18 ] M (SNR)9
10 9678 SHAUN GRIFFIN NAT KZ [ 2:13:20.44 ] M (SNR)10
11 9625 DEWALD HATTINGH NAT KZ [ 2:13:20.73 ] M (SNR)11
12 9563 MFANISENI NYAWOSE NAT KZ [ 2:13:21.05 ] M (SNR)12
1 1044 CLINTON COOK VAR KZ [ 2:02:33.26 ] M (U23)1
2 879 MHLONISHWA HLONGWANE THO KZ [ 2:02:34.93 ] M (U23)2
3 823 BANESTI NKHOESA UMZ KZ [ 2:02:40.51 ] M (U23)3
4 7505 KWANDA MHLOPHE VAR KZ [ 2:07:04.35 ] M (U23)4
5 346 SBONISO SHOZI THO KZ [ 2:07:06.18 ] M (U23)5
6 9625 DEWALD HATTINGH NAT KZ [ 2:13:20.73 ] M (U23)6